This is the latest recevied weather packets stored in our database for station/object EDXW. If no packets are shown the sender has not sent any weather packets the latest 10 day(s).
| Time | Temp. | Humidity | Pressure | Rain* | Wind** | Luminosity | Snow |
|---|---|---|---|---|---|---|---|
| 1777619402 | 13.89° C | 65% | 1029 hPa | 0 mm | - | - | - |
| 1777615801 | 11.67° C | 75% | 1029 hPa | 0 mm | - | - | - |
| 1777590602 | 10° C | 80% | 1029 hPa | 0 mm | - | - | - |
| 1777579802 | 10° C | 60% | 1030 hPa | 0 mm | - | - | - |
| 1777576201 | 10.56° C | 50% | 1030 hPa | 0 mm | - | - | - |
| 1777572602 | 12.78° C | 40% | 1030 hPa | 0 mm | - | - | - |
| 1777569001 | 15° C | 25% | 1030 hPa | 0 mm | - | - | - |
| 1777565402 | 15° C | 15% | 1031 hPa | 0 mm | - | - | - |
| 1777561802 | 15° C | 20% | 1031 hPa | 0 mm | - | - | - |
| 1777558202 | 15° C | 30% | 1032 hPa | 0 mm | - | - | - |
| 1777554602 | 15° C | 25% | 1032 hPa | 0 mm | - | - | - |
| 1777551002 | 15° C | 30% | 1032 hPa | 0 mm | - | - | - |
| 1777547415 | 15° C | 20% | 1033 hPa | 0 mm | - | - | - |
| 1777543802 | 15° C | 40% | 1033 hPa | 0 mm | - | - | - |
| 1777540201 | 13.89° C | 50% | 1033 hPa | 0 mm | - | - | - |
| 1777536602 | 12.78° C | 40% | 1033 hPa | 0 mm | - | - | - |
| 1777533002 | 10.56° C | 70% | 1033 hPa | 0 mm | - | - | - |
| 1777529402 | 10.56° C | 75% | 1033 hPa | 0 mm | - | - | - |
| 1777525802 | 5.56° C | 85% | 1033 hPa | 0 mm | - | - | - |
| 1777522201 | 5.56° C | 90% | 1032 hPa | 0 mm | - | - | - |
| 1777518602 | 5.56° C | 90% | 1032 hPa | 0 mm | - | - | - |
| 1777515002 | 5.56° C | 90% | 1032 hPa | 0 mm | - | - | - |
| 1777511401 | 6.67° C | 80% | 1032 hPa | 0 mm | - | - | - |
| 1777507802 | 6.67° C | 85% | 1032 hPa | 0 mm | - | - | - |
| 1777497002 | 6.67° C | 80% | 1032 hPa | 0 mm | - | - | - |
* Rain latest 24 hours (hover to see other rain measurements)
** Current wind speed in m/s (hover to see current wind gust speed)